Terminal Aerodrome Forecast
Issued by NWS Louisville, KY

Home | Current Version | Previous Version | Text Only | Print | Product List | Glossary On
Versions: 1 2 3 4 5 6 7 8 9 10 11 12 13 14 15 16 17 18 19
306
FTUS43 KLMK 112323
TAFSDF
TAF
KSDF 112323Z 1200/1306 VRB04KT P6SM SCT040 BKN100
     FM121100 VRB03KT P6SM BKN040 PROB30 1212/1216 3SM -SN BR BKN025
     FM121600 28010G15KT P6SM BKN025
     FM130100 30012G18KT P6SM BKN035=

USA.gov is the U.S. government's official web portal to all federal, state and local government web resources and services.